Time;durP1;ratioP1;P1;durP2;ratioP2;P2;SDS_P1;SDS_P2;PMS_P1;PMS_P2;Temp;Humidity;BMP_temperature;BMP_pressure;BME280_temperature;BME280_humidity;BME280_pressure;Samples;Min_cycle;Max_cycle;Signal;HPM_P1;HPM_P2
2022/05/30 00:00:32;;;;;;;27.45;15.05;;;;;;;29.28;80.08;100583.19;5055324;28;67619;-33
2022/05/30 00:03:02;;;;;;;27.23;14.10;;;;;;;29.35;79.52;100583.97;5053097;28;70574;-35
2022/05/30 00:05:34;;;;;;;23.25;11.88;;;;;;;29.43;79.84;100592.88;5071500;28;66362;-34
2022/05/30 00:08:05;;;;;;;18.67;11.32;;;;;;;29.46;78.93;100597.84;5081415;28;69191;-35
2022/05/30 00:10:36;;;;;;;24.00;12.00;;;;;;;29.48;79.96;100602.00;5063915;28;66783;-35
2022/05/30 00:13:07;;;;;;;31.92;13.77;;;;;;;29.50;80.36;100605.28;5064263;28;70100;-35
2022/05/30 00:15:37;;;;;;;28.52;12.32;;;;;;;29.56;79.79;100615.25;5062405;28;66746;-36
2022/05/30 00:18:09;;;;;;;22.23;12.75;;;;;;;29.58;79.77;100609.59;5068228;28;72096;-35
2022/05/30 00:20:45;;;;;;;20.33;12.57;;;;;;;29.37;80.42;100583.78;5066975;28;65879;-35
2022/05/30 00:23:16;;;;;;;32.17;14.57;;;;;;;29.64;80.13;100614.16;5074852;28;70068;-36
2022/05/30 00:25:46;;;;;;;30.83;14.57;;;;;;;29.67;79.06;100621.88;5071699;28;65832;-36
2022/05/30 00:28:18;;;;;;;22.25;11.88;;;;;;;29.72;78.09;100630.13;5072423;28;69552;-37
2022/05/30 00:30:50;;;;;;;18.80;11.48;;;;;;;29.74;79.77;100638.03;5075418;28;65281;-35
2022/05/30 00:33:21;;;;;;;21.67;12.27;;;;;;;29.81;76.70;100633.38;5067399;28;70111;-34
2022/05/30 00:35:51;;;;;;;15.13;9.73;;;;;;;29.89;74.98;100618.78;5064546;28;66053;-34
2022/05/30 00:38:22;;;;;;;17.15;9.10;;;;;;;30.05;74.41;100629.06;5073585;28;69997;-35
2022/05/30 00:40:53;;;;;;;12.85;8.90;;;;;;;30.13;73.70;100634.19;5052666;28;65020;-34
2022/05/30 00:43:35;;;;;;;9.70;8.35;;;;;;;30.21;73.66;100643.91;5063539;28;69956;-34
2022/05/30 00:46:12;;;;;;;12.88;7.80;;;;;;;29.99;72.68;100602.91;5069858;28;65725;-35
2022/05/30 00:48:51;;;;;;;10.80;8.23;;;;;;;30.14;72.87;100622.31;5041444;28;69909;-35
2022/05/30 00:51:34;;;;;;;11.32;7.72;;;;;;;30.41;71.93;100660.81;5031571;28;66148;-34
2022/05/30 00:54:08;;;;;;;9.68;7.88;;;;;;;30.04;71.18;100584.97;5041872;28;69988;-34
2022/05/30 00:56:49;;;;;;;13.40;8.40;;;;;;;30.47;72.06;100650.97;5061854;28;65483;-34
2022/05/30 00:59:20;;;;;;;11.18;8.07;;;;;;;30.50;70.64;100647.81;5056855;28;69531;-34
2022/05/30 01:01:51;;;;;;;20.50;8.60;;;;;;;30.55;70.73;100647.97;5070507;28;66138;-34
2022/05/30 01:07:11;;;;;;;10.65;7.53;;;;;;;30.61;69.99;100649.78;5068169;28;65804;-35
2022/05/30 01:09:44;;;;;;;9.45;7.03;;;;;;;30.66;69.79;100658.06;5047967;28;69619;-34
2022/05/30 01:12:15;;;;;;;8.15;7.35;;;;;;;30.69;69.68;100663.03;5067723;28;66106;-35
2022/05/30 01:14:47;;;;;;;7.93;7.13;;;;;;;30.71;69.35;100669.06;5048676;28;69359;-35
2022/05/30 01:17:20;;;;;;;10.85;7.03;;;;;;;30.65;69.17;100672.66;5081028;28;66204;-35
2022/05/30 01:20:15;;;;;;;8.75;6.78;;;;;;;30.46;69.53;100652.03;5046977;28;69204;-36
2022/05/30 01:22:55;;;;;;;10.93;6.82;;;;;;;30.79;68.62;100699.63;5080232;28;66179;-36
2022/05/30 01:25:56;;;;;;;7.70;7.00;;;;;;;30.80;69.18;100695.88;5062584;28;70500;-35
2022/05/30 01:28:57;;;;;;;7.40;6.22;;;;;;;30.70;68.40;100680.97;5062595;28;66640;-36
2022/05/30 01:31:30;;;;;;;7.05;6.15;;;;;;;30.88;68.08;100703.72;5059273;28;70216;-35
2022/05/30 01:34:01;;;;;;;9.95;6.28;;;;;;;30.89;67.88;100708.88;5045344;28;64765;-36
2022/05/30 01:36:33;;;;;;;8.57;7.05;;;;;;;30.92;67.93;100711.19;5062776;28;69911;-36
2022/05/30 01:39:05;;;;;;;8.77;6.90;;;;;;;30.96;67.70;100711.53;5044387;28;66519;-36
2022/05/30 01:41:45;;;;;;;6.35;5.75;;;;;;;30.98;67.60;100714.88;5062551;28;69423;-35
2022/05/30 01:44:16;;;;;;;;;;;;;;;30.65;69.38;100710.56;5061757;28;66321;-36
2022/05/30 01:46:47;;;;;;;9.00;5.78;;;;;;;30.98;67.68;100712.16;5063064;28;69142;-35
2022/05/30 01:49:18;;;;;;;7.40;6.28;;;;;;;31.03;67.32;100716.88;5056832;28;66030;-35
2022/05/30 01:51:53;;;;;;;8.65;6.45;;;;;;;31.05;67.52;100720.19;5076557;28;68979;-35
2022/05/30 01:54:27;;;;;;;8.38;6.22;;;;;;;31.04;67.01;100716.66;5063450;28;64853;-35
2022/05/30 01:57:16;;;;;;;7.13;6.00;;;;;;;31.10;67.04;100723.06;5046121;28;70537;-36
2022/05/30 02:00:10;;;;;;;7.32;5.70;;;;;;;31.13;67.01;100712.59;5079752;28;66706;-36
2022/05/30 02:02:44;;;;;;;9.25;6.22;;;;;;;31.12;66.43;100710.09;5077578;28;69254;-35
2022/05/30 02:05:15;;;;;;;7.17;5.77;;;;;;;31.16;66.24;100712.13;5062751;28;65957;-35
2022/05/30 02:07:46;;;;;;;7.00;6.30;;;;;;;31.06;66.39;100695.56;5078661;28;69936;-35
2022/05/30 02:10:21;;;;;;;10.63;6.72;;;;;;;31.25;66.01;100719.97;5051442;28;65933;-35
2022/05/30 02:12:54;;;;;;;6.95;5.82;;;;;;;31.14;66.22;100692.56;5056620;28;69127;-35
2022/05/30 02:18:34;;;;;;;6.28;5.53;;;;;;;31.31;66.19;100710.91;5052851;28;69071;-36
2022/05/30 02:21:05;;;;;;;6.45;5.43;;;;;;;31.34;65.78;100707.75;5063833;27;67880;-35
2022/05/30 02:23:36;;;;;;;6.35;5.38;;;;;;;31.36;65.51;100711.09;5070539;28;70491;-35
2022/05/30 02:26:07;;;;;;;6.82;5.65;;;;;;;31.38;65.42;100711.72;5063420;28;66519;-35
2022/05/30 02:28:38;;;;;;;6.15;5.68;;;;;;;31.41;65.68;100703.13;5065978;28;70365;-35
2022/05/30 02:31:09;;;;;;;6.78;6.07;;;;;;;31.43;65.62;100697.47;5065769;28;66852;-35
2022/05/30 02:36:39;;;;;;;6.85;6.10;;;;;;;31.44;65.52;100699.94;5063399;28;66518;-35
2022/05/30 02:39:15;;;;;;;8.45;5.88;;;;;;;31.50;65.29;100704.44;5065059;28;70396;-34
2022/05/30 02:42:05;;;;;;;6.53;5.85;;;;;;;31.51;65.46;100695.28;5080997;28;66068;-35
2022/05/30 02:44:38;;;;;;;6.30;5.53;;;;;;;31.56;65.30;100691.84;5064717;28;69949;-35
2022/05/30 02:47:10;;;;;;;7.82;5.75;;;;;;;31.59;65.32;100694.97;5081926;28;65804;-35
2022/05/30 02:49:46;;;;;;;8.80;6.20;;;;;;;31.59;65.08;100681.41;5062852;28;70448;-34
2022/05/30 02:52:17;;;;;;;11.25;5.95;;;;;;;31.44;65.07;100655.75;5064613;28;66274;-36
2022/05/30 02:54:48;;;;;;;8.13;7.53;;;;;;;31.63;65.01;100689.91;5081466;28;70664;-37
2022/05/30 02:57:39;;;;;;;9.07;8.35;;;;;;;31.66;65.13;100683.19;5082349;28;66144;-36
2022/05/30 03:00:13;;;;;;;12.00;9.18;;;;;;;31.71;64.99;100688.75;5043424;28;70048;-36
2022/05/30 03:02:44;;;;;;;;;;;;;;;31.37;66.02;100683.78;5057234;28;65427;-36
2022/05/30 03:05:14;;;;;;;11.55;8.90;;;;;;;31.69;64.72;100680.84;5073233;28;69756;-36
2022/05/30 03:07:45;;;;;;;12.68;11.25;;;;;;;31.67;64.89;100682.94;5063129;28;66149;-36
2022/05/30 03:10:42;;;;;;;12.95;11.55;;;;;;;31.75;65.10;100679.09;5082515;28;69614;-36
2022/05/30 03:13:13;;;;;;;10.90;9.88;;;;;;;31.75;65.08;100674.47;5049221;28;65912;-36
2022/05/30 03:15:43;;;;;;;11.50;10.07;;;;;;;31.78;64.79;100675.91;5046063;28;69064;-36
2022/05/30 03:18:15;;;;;;;14.32;12.23;;;;;;;31.76;64.59;100672.59;5051079;28;65653;-36
2022/05/30 03:20:46;;;;;;;10.88;9.98;;;;;;;31.81;64.71;100660.00;5064671;28;70029;-36
2022/05/30 03:23:17;;;;;;;13.77;9.82;;;;;;;31.82;64.94;100658.13;5063911;28;67035;-36
2022/05/30 03:26:07;;;;;;;13.38;10.90;;;;;;;31.85;64.49;100654.94;5061617;27;70659;-36
2022/05/30 03:28:38;;;;;;;10.88;9.77;;;;;;;31.89;64.57;100663.44;5061990;28;66083;-36
2022/05/30 03:31:10;;;;;;;11.18;10.00;;;;;;;31.89;64.09;100658.84;5075327;28;70336;-35
2022/05/30 03:33:43;;;;;;;11.07;9.93;;;;;;;31.90;64.04;100652.38;5062621;28;65247;-36
2022/05/30 03:36:30;;;;;;;14.30;12.95;;;;;;;31.53;64.20;100600.16;5034315;28;69899;-35
2022/05/30 03:39:01;;;;;;;14.23;11.82;;;;;;;31.94;64.05;100659.00;5081061;28;66100;-36
2022/05/30 03:42:13;;;;;;;13.70;12.40;;;;;;;31.95;64.08;100651.69;5072654;28;69696;-34
2022/05/30 03:45:16;;;;;;;13.80;12.48;;;;;;;31.96;64.04;100650.63;5066232;28;65758;-35
2022/05/30 03:47:48;;;;;;;15.95;14.35;;;;;;;31.98;64.28;100648.50;5077416;28;69871;-35
2022/05/30 03:50:24;;;;;;;15.57;14.00;;;;;;;32.02;64.06;100649.69;5054783;28;66297;-36
2022/05/30 03:53:05;;;;;;;17.25;15.20;;;;;;;32.00;64.29;100638.25;5071008;28;69240;-36
2022/05/30 03:55:42;;;;;;;18.33;16.38;;;;;;;32.03;64.11;100646.75;5058018;28;66072;-35
2022/05/30 03:58:16;;;;;;;14.70;13.07;;;;;;;32.03;64.03;100649.44;5053841;28;70376;-35
2022/05/30 04:00:47;;;;;;;13.75;12.48;;;;;;;32.02;63.82;100628.81;5063302;28;66324;-35
2022/05/30 04:03:19;;;;;;;16.27;13.63;;;;;;;31.96;63.77;100608.06;5045414;28;69860;-36
2022/05/30 04:05:50;;;;;;;14.60;13.10;;;;;;;32.07;64.01;100630.00;5067227;28;66602;-36
2022/05/30 04:08:21;;;;;;;14.70;13.38;;;;;;;32.02;63.85;100617.97;5055959;28;70417;-36
2022/05/30 04:11:18;;;;;;;16.88;14.98;;;;;;;32.00;63.99;100609.22;5024511;28;66595;-35
2022/05/30 04:14:08;;;;;;;15.10;13.68;;;;;;;32.08;64.25;100616.19;5054686;28;69166;-36
2022/05/30 04:16:46;;;;;;;16.27;14.77;;;;;;;32.02;63.73;100596.25;5051102;28;66371;-35
2022/05/30 04:19:17;;;;;;;15.75;14.35;;;;;;;32.13;63.67;100601.94;5067271;28;70125;-36
2022/05/30 04:21:48;;;;;;;17.40;15.15;;;;;;;32.17;63.84;100608.53;5082385;28;66055;-35
2022/05/30 04:24:28;;;;;;;16.48;14.95;;;;;;;32.20;63.68;100608.06;5063101;28;69858;-35
2022/05/30 04:27:04;;;;;;;20.83;15.38;;;;;;;32.23;63.47;100602.16;5055197;28;66638;-35
2022/05/30 04:29:36;;;;;;;16.02;14.70;;;;;;;32.24;63.59;100593.78;5055010;28;68019;-36
2022/05/30 04:32:17;;;;;;;17.52;15.63;;;;;;;32.27;63.34;100581.63;5051500;28;65791;-35
2022/05/30 04:34:48;;;;;;;16.88;15.25;;;;;;;32.31;63.14;100588.22;5060740;28;69846;-35
2022/05/30 04:37:20;;;;;;;14.82;13.35;;;;;;;32.28;63.21;100588.72;5052448;28;66233;-35
2022/05/30 04:39:54;;;;;;;16.73;14.27;;;;;;;32.27;63.19;100570.78;5060738;28;69967;-36
2022/05/30 04:42:44;;;;;;;15.63;14.23;;;;;;;32.34;63.07;100576.06;5070148;28;66204;-35
2022/05/30 04:45:33;;;;;;;16.52;14.93;;;;;;;32.38;63.02;100567.22;5061250;28;70152;-36
2022/05/30 04:48:18;;;;;;;16.13;14.57;;;;;;;32.40;63.20;100554.25;5056663;28;65464;-36
2022/05/30 04:50:49;;;;;;;16.50;14.70;;;;;;;32.37;63.04;100549.28;5068388;28;70730;-37
2022/05/30 04:53:20;;;;;;;16.33;13.70;;;;;;;32.44;62.97;100544.56;5080471;28;66348;-35
2022/05/30 04:56:19;;;;;;;15.57;14.10;;;;;;;32.45;62.58;100543.47;5080462;28;69797;-36
2022/05/30 04:59:11;;;;;;;15.55;13.88;;;;;;;32.47;62.90;100540.56;5064278;27;66589;-35
2022/05/30 05:01:42;;;;;;;14.80;13.50;;;;;;;32.45;62.89;100538.03;5045683;28;70133;-36
2022/05/30 05:04:17;;;;;;;16.27;14.60;;;;;;;32.49;62.53;100547.41;5057782;28;66507;-36
2022/05/30 05:06:49;;;;;;;16.10;13.60;;;;;;;32.43;63.09;100540.19;5062862;28;69315;-35
2022/05/30 05:09:43;;;;;;;;;;;;;;;32.14;63.48;100550.13;5048864;28;66754;-36
2022/05/30 05:12:36;;;;;;;14.73;12.95;;;;;;;32.45;63.03;100548.91;5081255;28;69947;-35
2022/05/30 05:15:25;;;;;;;15.00;13.27;;;;;;;32.45;62.44;100524.47;5069512;28;65741;-35
2022/05/30 05:18:16;;;;;;;14.20;13.00;;;;;;;32.47;62.69;100522.38;5056295;28;70618;-36
2022/05/30 05:20:47;;;;;;;14.15;12.75;;;;;;;32.48;62.76;100502.31;5038723;28;66540;-36
2022/05/30 05:23:18;;;;;;;18.57;13.57;;;;;;;32.49;62.72;100493.09;5057532;28;70035;-36
2022/05/30 05:25:57;;;;;;;13.88;12.35;;;;;;;32.53;62.68;100509.72;5056559;28;67730;-36
2022/05/30 05:28:48;;;;;;;13.85;12.65;;;;;;;32.34;62.49;100468.31;5063142;28;69494;-36
2022/05/30 05:31:33;;;;;;;15.35;12.88;;;;;;;32.18;62.37;100452.78;5061357;28;66466;-36
2022/05/30 05:34:08;;;;;;;13.88;12.45;;;;;;;32.61;62.28;100506.66;5043749;28;70479;-36
2022/05/30 05:36:42;;;;;;;14.75;12.55;;;;;;;32.63;62.23;100493.66;5064964;28;66555;-36
2022/05/30 05:39:15;;;;;;;13.27;11.98;;;;;;;32.66;62.39;100497.78;5062374;28;70780;-35
2022/05/30 05:41:53;;;;;;;13.98;12.57;;;;;;;32.65;62.49;100483.38;5061732;28;66355;-35
2022/05/30 05:44:24;;;;;;;15.37;12.67;;;;;;;32.64;62.37;100480.91;5061728;28;70063;-36
2022/05/30 05:46:58;;;;;;;;;;;;;;;32.33;62.80;100468.56;5050179;28;66325;-35
2022/05/30 05:49:32;;;;;;;13.63;12.50;;;;;;;32.66;62.45;100476.06;5060372;28;70522;-36
2022/05/30 05:52:04;;;;;;;16.23;12.47;;;;;;;32.66;62.10;100465.19;5056305;28;66293;-37
2022/05/30 05:54:35;;;;;;;13.55;12.13;;;;;;;32.65;62.12;100458.09;5065960;28;69963;-35
2022/05/30 05:57:11;;;;;;;15.27;11.35;;;;;;;32.67;62.26;100447.81;5062665;28;66079;-36
2022/05/30 05:59:46;;;;;;;12.23;11.20;;;;;;;32.67;62.21;100445.09;5048553;28;69513;-36
2022/05/30 06:02:18;;;;;;;13.38;11.52;;;;;;;32.57;62.29;100434.03;5062028;28;65470;-36
2022/05/30 06:04:52;;;;;;;13.02;11.85;;;;;;;32.64;62.42;100457.28;5079631;28;69909;-35
2022/05/30 06:07:43;;;;;;;13.20;11.23;;;;;;;32.29;62.54;100416.66;5062594;28;66187;-35
2022/05/30 06:11:04;;;;;;;12.60;10.70;;;;;;;32.63;62.35;100466.50;5061048;28;70293;-36
2022/05/30 06:13:24;;;;;;;12.40;11.15;;;;;;;32.60;62.58;100442.56;5046151;28;66331;-35
2022/05/30 06:15:55;;;;;;;11.50;10.43;;;;;;;32.64;62.54;100442.88;5054816;28;69921;-35
2022/05/30 06:18:44;;;;;;;12.93;11.05;;;;;;;32.66;62.41;100451.63;5068662;28;65716;-36
2022/05/30 06:21:15;;;;;;;14.65;11.18;;;;;;;32.64;62.52;100461.88;5060823;28;69615;-35
2022/05/30 06:23:50;;;;;;;14.20;10.07;;;;;;;32.64;62.55;100484.44;5051710;28;66190;-36
2022/05/30 06:26:39;;;;;;;12.02;10.35;;;;;;;32.63;63.04;100487.41;5040838;28;69728;-36
2022/05/30 06:29:15;;;;;;;11.68;10.65;;;;;;;32.61;63.11;100500.38;5053006;28;66141;-36
2022/05/30 06:31:46;;;;;;;11.77;10.17;;;;;;;32.61;63.28;100511.25;5040909;28;70336;-36
2022/05/30 06:34:17;;;;;;;;;;;;;;;32.31;63.98;100517.66;5051106;28;65903;-35
2022/05/30 06:36:48;;;;;;;10.45;9.55;;;;;;;32.59;63.13;100513.38;5077080;28;69211;-36
2022/05/30 06:39:19;;;;;;;11.07;10.03;;;;;;;32.57;63.24;100504.63;5044892;28;66112;-36
2022/05/30 06:42:10;;;;;;;10.23;9.05;;;;;;;32.23;63.14;100445.59;5063784;28;69608;-36
2022/05/30 06:44:59;;;;;;;11.98;9.57;;;;;;;32.57;63.63;100508.19;5076644;28;66946;-36
2022/05/30 06:47:48;;;;;;;10.77;9.75;;;;;;;32.39;63.43;100498.28;5075066;28;70121;-37
2022/05/30 06:50:37;;;;;;;11.20;8.98;;;;;;;32.49;63.64;100498.53;5066155;28;65655;-36
2022/05/30 06:53:08;;;;;;;13.97;9.37;;;;;;;32.54;63.73;100515.97;5061729;28;70002;-36
2022/05/30 06:55:39;;;;;;;9.05;8.32;;;;;;;32.53;63.58;100504.31;5059366;28;66333;-36
2022/05/30 06:58:12;;;;;;;12.52;8.00;;;;;;;32.49;63.97;100501.25;5060537;28;70834;-36
2022/05/30 07:00:47;;;;;;;13.77;8.13;;;;;;;32.47;63.95;100506.09;5060788;28;65823;-35
2022/05/30 07:03:41;;;;;;;11.70;8.23;;;;;;;32.44;63.94;100501.13;5054298;28;69495;-36
2022/05/30 07:06:33;;;;;;;8.27;7.57;;;;;;;32.42;64.08;100475.28;5069619;28;65628;-36
2022/05/30 07:09:38;;;;;;;12.70;8.00;;;;;;;32.40;64.36;100461.94;5047733;28;71160;-35
2022/05/30 07:12:13;;;;;;;9.63;7.03;;;;;;;32.38;64.16;100457.81;5075593;28;66187;-36
2022/05/30 07:14:44;;;;;;;;;;;;;;;32.01;65.25;100458.97;5064096;28;69715;-35
2022/05/30 07:17:16;;;;;;;8.25;7.53;;;;;;;32.30;64.46;100461.75;5062571;28;66456;-35
2022/05/30 07:19:48;;;;;;;12.38;7.15;;;;;;;32.31;64.25;100457.94;5063868;28;70108;-36
2022/05/30 07:22:24;;;;;;;8.13;7.38;;;;;;;32.32;64.33;100458.75;5062539;28;66102;-35
2022/05/30 07:25:14;;;;;;;8.02;7.32;;;;;;;32.26;64.73;100455.13;5075260;28;70382;-35
2022/05/30 07:28:25;;;;;;;10.50;6.45;;;;;;;32.23;64.62;100439.31;4969352;28;66003;-35
2022/05/30 07:31:18;;;;;;;7.20;6.50;;;;;;;31.80;64.40;100343.75;4999499;28;70108;-36
2022/05/30 07:34:07;;;;;;;6.72;6.13;;;;;;;32.19;64.92;100413.75;5058825;28;64960;-35
2022/05/30 07:36:57;;;;;;;7.97;6.75;;;;;;;32.16;64.76;100416.94;5071272;28;70295;-35
2022/05/30 07:40:07;;;;;;;7.13;6.40;;;;;;;32.14;64.86;100419.06;5013244;28;66553;-36
2022/05/30 07:43:07;;;;;;;7.35;6.25;;;;;;;32.11;64.88;100400.56;4986997;28;69405;-35
2022/05/30 07:45:48;;;;;;;7.10;6.43;;;;;;;32.08;65.11;100393.72;5017485;28;65948;-35
2022/05/30 07:48:40;;;;;;;6.18;5.78;;;;;;;32.09;65.00;100394.53;5078449;28;71633;-36
2022/05/30 07:51:29;;;;;;;6.63;6.13;;;;;;;32.04;64.94;100392.56;5062308;28;66257;-35
2022/05/30 07:54:23;;;;;;;6.63;6.13;;;;;;;31.88;65.01;100360.72;5061307;28;69531;-37
2022/05/30 07:57:00;;;;;;;7.10;5.70;;;;;;;32.00;64.86;100370.50;5046591;28;66018;-36
2022/05/30 07:59:31;;;;;;;6.65;5.80;;;;;;;31.99;65.08;100379.69;5065271;28;70534;-36
2022/05/30 08:02:03;;;;;;;7.07;6.03;;;;;;;31.98;64.86;100383.50;5062127;28;67280;-36
2022/05/30 08:04:40;;;;;;;8.25;6.20;;;;;;;31.96;64.84;100385.63;5059348;28;69335;-36
2022/05/30 08:07:29;;;;;;;7.45;5.90;;;;;;;31.93;65.07;100390.66;5075385;28;66589;-36
2022/05/30 08:10:32;;;;;;;10.32;6.00;;;;;;;31.91;65.16;100409.06;5056335;28;69622;-36
2022/05/30 08:13:04;;;;;;;5.88;5.38;;;;;;;31.91;65.22;100415.34;5058060;28;66197;-36
2022/05/30 08:15:48;;;;;;;6.80;5.03;;;;;;;31.90;65.04;100419.09;5032428;28;70500;-35
2022/05/30 08:18:26;;;;;;;5.85;5.35;;;;;;;31.90;65.06;100415.53;5081229;28;65805;-36
2022/05/30 08:21:01;;;;;;;6.25;5.43;;;;;;;31.91;64.99;100420.75;5076407;28;70635;-36
2022/05/30 08:23:35;;;;;;;6.85;5.88;;;;;;;31.80;65.30;100391.75;5054014;28;66070;-35
2022/05/30 08:26:06;;;;;;;6.13;5.50;;;;;;;31.74;65.03;100371.81;5068065;28;69386;-35
2022/05/30 08:28:59;;;;;;;5.80;5.30;;;;;;;31.85;65.41;100374.75;5061382;28;65566;-35
2022/05/30 08:31:30;;;;;;;6.85;5.20;;;;;;;31.86;65.09;100365.56;5052534;28;70147;-35
2022/05/30 08:35:00;;;;;;;5.45;4.95;;;;;;;31.84;65.08;100352.22;5055429;28;65415;-36
2022/05/30 08:37:34;;;;;;;5.50;5.00;;;;;;;31.78;64.83;100364.84;5051243;28;69899;-36
2022/05/30 08:43:02;;;;;;;5.25;4.70;;;;;;;31.82;65.35;100359.78;5056759;28;70229;-35
2022/05/30 08:45:46;;;;;;;4.30;4.00;;;;;;;31.82;64.97;100351.66;5061951;28;66222;-36
2022/05/30 08:48:46;;;;;;;4.80;4.35;;;;;;;31.77;65.18;100348.81;5074193;28;70009;-35
2022/05/30 08:51:57;;;;;;;5.28;4.78;;;;;;;31.71;65.21;100345.19;5049564;28;66755;-35
2022/05/30 08:54:39;;;;;;;4.72;4.32;;;;;;;31.81;64.80;100344.56;5032349;28;70651;-36
2022/05/30 08:57:34;;;;;;;4.25;3.85;;;;;;;31.81;64.85;100344.56;5059489;28;66812;-35
2022/05/30 09:00:28;;;;;;;5.25;4.75;;;;;;;31.49;64.75;100304.31;5037301;28;69939;-35
2022/05/30 09:03:20;;;;;;;4.53;4.13;;;;;;;31.83;64.91;100343.25;5067915;28;66246;-36
2022/05/30 09:06:16;;;;;;;4.40;4.07;;;;;;;31.81;64.85;100349.97;5043872;28;69997;-34
2022/05/30 09:08:55;;;;;;;4.28;3.92;;;;;;;31.53;65.05;100305.47;5050473;28;66113;-36
2022/05/30 09:12:09;;;;;;;4.47;4.07;;;;;;;31.79;64.90;100352.13;5069021;28;70526;-36
2022/05/30 09:14:57;;;;;;;4.97;4.22;;;;;;;31.49;64.69;100287.25;5057870;28;65910;-34
2022/05/30 09:17:40;;;;;;;4.40;4.00;;;;;;;31.80;65.11;100343.75;5062545;28;69032;-36
2022/05/30 09:20:20;;;;;;;3.92;3.60;;;;;;;31.46;65.54;100277.69;5026091;28;66216;-36
2022/05/30 09:22:53;;;;;;;4.32;3.92;;;;;;;31.79;65.20;100325.00;5074165;28;69890;-35
2022/05/30 09:28:44;;;;;;;4.07;3.78;;;;;;;31.42;65.21;100254.00;5066359;28;69570;-36
2022/05/30 09:31:51;;;;;;;3.80;3.50;;;;;;;31.67;65.22;100308.75;5079970;28;66413;-35
2022/05/30 09:34:32;;;;;;;4.00;3.67;;;;;;;31.68;65.10;100286.00;5075546;28;69405;-36
2022/05/30 09:37:32;;;;;;;3.90;3.60;;;;;;;31.73;65.03;100304.25;5036304;28;66751;-36
2022/05/30 09:40:10;;;;;;;3.78;3.47;;;;;;;31.74;64.99;100295.06;5065074;28;69757;-36
2022/05/30 09:43:22;;;;;;;3.95;3.65;;;;;;;31.69;64.92;100298.50;5012273;28;66170;-36
2022/05/30 09:45:55;;;;;;;4.32;3.50;;;;;;;31.66;65.13;100295.44;5042202;28;70003;-35
2022/05/30 09:49:15;;;;;;;4.10;3.80;;;;;;;31.63;65.31;100306.78;5073736;28;66166;-37
2022/05/30 09:51:54;;;;;;;6.38;3.63;;;;;;;31.45;64.97;100265.19;5071298;28;69991;-36
2022/05/30 09:54:25;;;;;;;3.90;3.60;;;;;;;31.72;65.32;100318.88;5029966;28;66693;-36
2022/05/30 09:57:26;;;;;;;4.43;3.85;;;;;;;31.27;65.43;100273.44;5046322;28;68964;-36
2022/05/30 10:00:56;;;;;;;3.92;3.63;;;;;;;31.51;65.79;100333.88;5048844;28;66728;-36
2022/05/30 10:03:40;;;;;;;3.80;3.55;;;;;;;31.70;65.23;100331.84;5060948;28;70067;-35
2022/05/30 10:06:26;;;;;;;4.25;3.60;;;;;;;31.43;65.19;100293.63;5073710;28;67047;-36
2022/05/30 10:09:24;;;;;;;3.83;3.30;;;;;;;31.67;65.48;100329.63;5041166;28;69750;-36
2022/05/30 10:12:02;;;;;;;4.47;4.07;;;;;;;31.67;64.92;100322.31;5052489;28;65649;-35
2022/05/30 10:14:34;;;;;;;3.35;3.15;;;;;;;31.67;64.93;100316.06;5041613;28;70376;-35
2022/05/30 10:17:33;;;;;;;4.07;3.50;;;;;;;31.12;65.35;100244.13;5062056;28;66829;-35
2022/05/30 10:20:15;;;;;;;3.95;3.65;;;;;;;31.20;65.11;100237.50;5047295;28;70016;-36
2022/05/30 10:30:15;;;;;;;10.98;5.28;;;;;;;31.15;69.26;100320.34;5056926;28;65513;-36
2022/05/30 10:33:30;;;;;;;10.57;5.80;;;;;;;30.97;70.34;100327.75;5063359;28;70531;-37
2022/05/30 10:36:05;;;;;;;6.40;5.10;;;;;;;30.92;71.00;100336.56;5040333;28;66150;-37
2022/05/30 10:38:56;;;;;;;8.25;5.38;;;;;;;30.95;72.00;100336.09;5057712;28;70439;-36
2022/05/30 10:41:50;;;;;;;11.27;7.07;;;;;;;30.99;72.07;100342.72;5057755;28;66547;-37
2022/05/30 10:44:29;;;;;;;7.80;7.03;;;;;;;31.02;71.96;100326.00;5065720;28;69377;-39
2022/05/30 10:47:50;;;;;;;13.45;9.73;;;;;;;31.00;72.67;100344.34;5036084;28;66090;-35
2022/05/30 10:51:50;;;;;;;11.52;8.30;;;;;;;30.61;73.17;100297.88;5052656;28;70206;-37
2022/05/30 10:54:48;;;;;;;9.35;7.93;;;;;;;30.93;73.65;100365.31;5047260;28;65674;-37
2022/05/30 10:57:50;;;;;;;9.57;6.93;;;;;;;30.90;73.41;100376.63;5056171;28;70183;-37
2022/05/30 11:00:26;;;;;;;10.15;6.90;;;;;;;30.90;73.43;100376.63;5043204;28;66534;-36
2022/05/30 11:03:29;;;;;;;8.20;6.43;;;;;;;30.75;73.78;100384.31;5037205;28;70634;-37
2022/05/30 11:06:23;;;;;;;9.52;6.30;;;;;;;30.70;74.54;100388.53;5058190;28;66633;-36
2022/05/30 11:09:44;;;;;;;6.72;5.45;;;;;;;30.71;74.23;100401.00;5056539;28;69169;-37
2022/05/30 11:12:32;;;;;;;8.20;6.00;;;;;;;30.15;74.95;100307.47;5067611;28;66619;-36
2022/05/30 11:15:24;;;;;;;8.07;6.00;;;;;;;30.85;74.17;100417.09;5058550;28;70463;-36
2022/05/30 11:18:43;;;;;;;6.72;5.75;;;;;;;30.82;74.60;100414.88;5066655;28;66295;-37
2022/05/30 11:22:00;;;;;;;12.77;6.95;;;;;;;30.71;75.08;100406.44;5061440;28;70762;-39
2022/05/30 11:24:35;;;;;;;8.02;7.22;;;;;;;30.32;72.81;100307.69;5048524;28;65480;-36
2022/05/30 11:27:20;;;;;;;11.57;6.90;;;;;;;31.02;72.82;100411.84;5071151;28;69537;-36
2022/05/30 11:29:57;;;;;;;10.40;7.53;;;;;;;31.14;72.16;100399.13;5049663;28;66576;-36
2022/05/30 11:32:43;;;;;;;12.10;8.50;;;;;;;31.21;71.88;100399.03;5064475;28;69187;-35
2022/05/30 11:35:23;;;;;;;15.00;8.30;;;;;;;31.16;72.35;100397.84;5075742;28;65432;-34
2022/05/30 11:38:03;;;;;;;17.58;9.98;;;;;;;31.07;73.21;100404.66;5062347;28;69324;-36
2022/05/30 11:40:56;;;;;;;18.75;9.93;;;;;;;30.63;74.26;100373.44;5061953;28;66671;-36
2022/05/30 11:44:04;;;;;;;18.58;9.77;;;;;;;30.73;74.75;100414.34;5019691;28;68946;-36
2022/05/30 11:47:07;;;;;;;14.18;9.35;;;;;;;30.81;74.87;100421.31;5071360;28;66300;-34
2022/05/30 11:50:52;;;;;;;10.23;8.80;;;;;;;30.66;75.69;100436.06;5075364;28;70525;-36
2022/05/30 11:53:52;;;;;;;14.93;8.65;;;;;;;30.73;75.59;100438.69;5072715;28;65620;-35
2022/05/30 11:57:05;;;;;;;14.25;8.23;;;;;;;30.55;76.14;100455.78;5060657;28;70617;-36
2022/05/30 12:00:01;;;;;;;15.25;8.40;;;;;;;29.98;75.86;100347.03;4996813;28;65902;-36
2022/05/30 12:02:49;;;;;;;12.65;8.85;;;;;;;30.64;75.59;100453.59;5041164;28;68860;-37
2022/05/30 12:05:49;;;;;;;12.88;8.55;;;;;;;30.62;76.14;100461.97;5054537;28;66181;-37
2022/05/30 12:08:57;;;;;;;21.85;9.20;;;;;;;30.58;76.21;100477.00;5056043;28;69643;-36
2022/05/30 12:12:02;;;;;;;17.90;8.77;;;;;;;30.53;76.49;100468.72;5072323;28;65967;-36
2022/05/30 12:14:45;;;;;;;16.67;9.05;;;;;;;30.66;76.42;100490.22;5054248;28;70644;-36
2022/05/30 12:24:21;;;;;;;13.05;8.10;;;;;;;30.30;71.52;100506.50;5060110;28;66299;-35
2022/05/30 12:26:56;;;;;;;9.65;8.13;;;;;;;30.23;70.37;100506.56;5052960;28;69457;-35
2022/05/30 12:29:44;;;;;;;8.02;7.10;;;;;;;30.07;68.26;100507.94;5079104;28;67058;-36
2022/05/30 12:32:21;;;;;;;8.32;7.40;;;;;;;30.03;67.60;100502.16;5054200;28;70096;-36
2022/05/30 12:35:00;;;;;;;8.38;7.68;;;;;;;29.95;67.35;100498.91;5070246;28;65785;-36
2022/05/30 12:37:56;;;;;;;8.82;7.07;;;;;;;29.78;66.13;100504.91;5050767;28;70315;-36
2022/05/30 12:40:26;;;;;;;8.38;7.55;;;;;;;29.81;65.83;100509.88;5052416;28;66284;-34
2022/05/30 12:43:15;;;;;;;9.60;7.07;;;;;;;29.74;64.94;100498.28;5063795;28;70402;-41
2022/05/30 12:46:07;;;;;;;7.80;7.05;;;;;;;29.39;64.16;100441.16;5052522;28;65353;-35
2022/05/30 12:49:03;;;;;;;13.32;7.70;;;;;;;29.72;64.42;100503.06;5050136;28;69780;-36
2022/05/30 12:51:40;;;;;;;9.65;7.00;;;;;;;29.70;63.20;100502.47;5026997;28;66709;-36
2022/05/30 12:54:21;;;;;;;11.48;7.13;;;;;;;29.65;62.26;100505.00;5077154;28;69930;-36
2022/05/30 12:57:04;;;;;;;10.55;7.97;;;;;;;29.61;61.75;100503.75;5060982;28;66214;-35
2022/05/30 13:00:10;;;;;;;;;;;;;;;29.27;61.99;100497.78;5066997;28;70642;-36